sensor_id;sensor_type;location;lat;lon;timestamp;pressure;altitude;pressure_sealevel;temperature;humidity
6565;BME280;3316;44.118;27.258;2023-08-24T00:00:39;100893.22;;;27.10;99.01
6565;BME280;3316;44.118;27.258;2023-08-24T00:03:05;100897.28;;;27.16;98.03
6565;BME280;3316;44.118;27.258;2023-08-24T00:05:35;100899.88;;;27.17;97.96
6565;BME280;3316;44.118;27.258;2023-08-24T00:08:04;100911.44;;;27.19;98.25
6565;BME280;3316;44.118;27.258;2023-08-24T00:10:30;100893.28;;;27.21;97.71
6565;BME280;3316;44.118;27.258;2023-08-24T00:12:56;100911.44;;;27.19;97.39
6565;BME280;3316;44.118;27.258;2023-08-24T00:15:21;100911.97;;;27.24;97.18
6565;BME280;3316;44.118;27.258;2023-08-24T00:17:46;100912.06;;;27.23;97.20
6565;BME280;3316;44.118;27.258;2023-08-24T00:20:12;100898.78;;;27.20;97.46
6565;BME280;3316;44.118;27.258;2023-08-24T00:22:39;100914.25;;;27.18;97.70
6565;BME280;3316;44.118;27.258;2023-08-24T00:25:06;100911.13;;;27.11;97.78
6565;BME280;3316;44.118;27.258;2023-08-24T00:27:33;100922.69;;;27.13;97.80
6565;BME280;3316;44.118;27.258;2023-08-24T00:29:58;100913.19;;;27.20;97.17
6565;BME280;3316;44.118;27.258;2023-08-24T00:32:24;100916.22;;;27.16;98.16
6565;BME280;3316;44.118;27.258;2023-08-24T00:34:49;100908.69;;;27.08;98.45
6565;BME280;3316;44.118;27.258;2023-08-24T00:37:14;100918.69;;;27.19;99.28
6565;BME280;3316;44.118;27.258;2023-08-24T00:39:40;100920.41;;;27.20;98.59
6565;BME280;3316;44.118;27.258;2023-08-24T00:42:06;100921.16;;;27.22;98.95
6565;BME280;3316;44.118;27.258;2023-08-24T00:44:31;100903.94;;;27.23;98.34
6565;BME280;3316;44.118;27.258;2023-08-24T00:46:58;100912.28;;;27.33;97.37
6565;BME280;3316;44.118;27.258;2023-08-24T00:49:25;100913.88;;;27.35;97.80
6565;BME280;3316;44.118;27.258;2023-08-24T00:51:51;100897.78;;;27.34;97.76
6565;BME280;3316;44.118;27.258;2023-08-24T00:54:16;100894.66;;;27.27;100.00
6565;BME280;3316;44.118;27.258;2023-08-24T00:56:43;100884.81;;;27.26;100.00
6565;BME280;3316;44.118;27.258;2023-08-24T00:59:09;100887.75;;;27.23;100.00
6565;BME280;3316;44.118;27.258;2023-08-24T01:01:34;100870.00;;;27.08;100.00
6565;BME280;3316;44.118;27.258;2023-08-24T01:04:00;100895.59;;;27.15;100.00
6565;BME280;3316;44.118;27.258;2023-08-24T01:06:25;100885.31;;;27.07;100.00
6565;BME280;3316;44.118;27.258;2023-08-24T01:08:51;100883.31;;;26.98;100.00
6565;BME280;3316;44.118;27.258;2023-08-24T01:14:21;100901.72;;;26.93;100.00
6565;BME280;3316;44.118;27.258;2023-08-24T01:16:50;100894.13;;;26.98;100.00
6565;BME280;3316;44.118;27.258;2023-08-24T01:19:37;100892.59;;;27.07;100.00
6565;BME280;3316;44.118;27.258;2023-08-24T01:22:07;100887.84;;;26.98;100.00
6565;BME280;3316;44.118;27.258;2023-08-24T01:24:40;100907.59;;;27.11;100.00
6565;BME280;3316;44.118;27.258;2023-08-24T01:27:07;100905.72;;;27.11;100.00
6565;BME280;3316;44.118;27.258;2023-08-24T01:29:33;100858.50;;;26.93;100.00
6565;BME280;3316;44.118;27.258;2023-08-24T01:31:58;100904.44;;;27.17;100.00
6565;BME280;3316;44.118;27.258;2023-08-24T01:34:24;100910.94;;;27.14;100.00
6565;BME280;3316;44.118;27.258;2023-08-24T01:36:49;100903.28;;;27.08;100.00
6565;BME280;3316;44.118;27.258;2023-08-24T01:39:28;100908.84;;;26.94;100.00
6565;BME280;3316;44.118;27.258;2023-08-24T01:42:00;100905.91;;;26.97;100.00
6565;BME280;3316;44.118;27.258;2023-08-24T01:44:28;100896.13;;;26.84;100.00
6565;BME280;3316;44.118;27.258;2023-08-24T01:46:55;100898.41;;;26.77;100.00
6565;BME280;3316;44.118;27.258;2023-08-24T01:49:22;100908.22;;;26.78;100.00
6565;BME280;3316;44.118;27.258;2023-08-24T01:51:49;100913.22;;;26.72;100.00
6565;BME280;3316;44.118;27.258;2023-08-24T01:54:15;100904.47;;;26.56;100.00
6565;BME280;3316;44.118;27.258;2023-08-24T01:56:40;100901.56;;;26.46;100.00
6565;BME280;3316;44.118;27.258;2023-08-24T01:59:06;100899.97;;;26.31;100.00
6565;BME280;3316;44.118;27.258;2023-08-24T02:01:31;100904.81;;;26.26;100.00
6565;BME280;3316;44.118;27.258;2023-08-24T02:03:57;100895.53;;;26.30;100.00
6565;BME280;3316;44.118;27.258;2023-08-24T02:06:22;100907.09;;;26.32;100.00
6565;BME280;3316;44.118;27.258;2023-08-24T02:08:48;100899.44;;;26.26;100.00
6565;BME280;3316;44.118;27.258;2023-08-24T02:11:13;100896.31;;;26.19;100.00
6565;BME280;3316;44.118;27.258;2023-08-24T02:13:38;100900.28;;;26.14;100.00
6565;BME280;3316;44.118;27.258;2023-08-24T02:16:05;100892.81;;;25.92;100.00
6565;BME280;3316;44.118;27.258;2023-08-24T02:18:31;100888.41;;;25.91;100.00
6565;BME280;3316;44.118;27.258;2023-08-24T02:20:57;100897.47;;;25.90;100.00
6565;BME280;3316;44.118;27.258;2023-08-24T02:23:22;100893.56;;;25.82;100.00
6565;BME280;3316;44.118;27.258;2023-08-24T02:25:47;100880.94;;;25.70;100.00
6565;BME280;3316;44.118;27.258;2023-08-24T02:28:13;100907.38;;;25.90;100.00
6565;BME280;3316;44.118;27.258;2023-08-24T02:30:38;100901.00;;;25.91;100.00
6565;BME280;3316;44.118;27.258;2023-08-24T02:33:04;100911.78;;;25.91;100.00
6565;BME280;3316;44.118;27.258;2023-08-24T02:35:30;100903.28;;;25.84;100.00
6565;BME280;3316;44.118;27.258;2023-08-24T02:37:56;100908.34;;;25.89;100.00
6565;BME280;3316;44.118;27.258;2023-08-24T02:40:22;100907.38;;;25.90;100.00
6565;BME280;3316;44.118;27.258;2023-08-24T02:42:48;100885.59;;;25.80;100.00
6565;BME280;3316;44.118;27.258;2023-08-24T02:45:13;100917.94;;;25.80;100.00
6565;BME280;3316;44.118;27.258;2023-08-24T02:47:38;100898.38;;;25.77;100.00
6565;BME280;3316;44.118;27.258;2023-08-24T02:50:05;100888.25;;;25.68;100.00
6565;BME280;3316;44.118;27.258;2023-08-24T02:52:31;100899.91;;;25.68;100.00
6565;BME280;3316;44.118;27.258;2023-08-24T02:54:57;100905.81;;;25.61;100.00
6565;BME280;3316;44.118;27.258;2023-08-24T02:57:23;100903.44;;;25.56;100.00
6565;BME280;3316;44.118;27.258;2023-08-24T02:59:48;100904.94;;;25.60;100.00
6565;BME280;3316;44.118;27.258;2023-08-24T03:02:14;100902.97;;;25.49;100.00
6565;BME280;3316;44.118;27.258;2023-08-24T03:04:39;100906.75;;;25.47;100.00
6565;BME280;3316;44.118;27.258;2023-08-24T03:07:05;100908.34;;;25.49;100.00
6565;BME280;3316;44.118;27.258;2023-08-24T03:09:36;100910.28;;;25.47;100.00
6565;BME280;3316;44.118;27.258;2023-08-24T03:12:02;100914.84;;;25.47;100.00
6565;BME280;3316;44.118;27.258;2023-08-24T03:14:28;100922.81;;;25.48;100.00
6565;BME280;3316;44.118;27.258;2023-08-24T03:16:53;100919.47;;;25.45;100.00
6565;BME280;3316;44.118;27.258;2023-08-24T03:19:19;100896.00;;;25.33;100.00
6565;BME280;3316;44.118;27.258;2023-08-24T03:21:44;100914.75;;;25.34;100.00
6565;BME280;3316;44.118;27.258;2023-08-24T03:24:10;100923.75;;;25.21;100.00
6565;BME280;3316;44.118;27.258;2023-08-24T03:26:36;100919.03;;;25.24;100.00
6565;BME280;3316;44.118;27.258;2023-08-24T03:29:01;100915.16;;;25.28;100.00
6565;BME280;3316;44.118;27.258;2023-08-24T03:31:27;100918.06;;;25.39;100.00
6565;BME280;3316;44.118;27.258;2023-08-24T03:33:52;100880.81;;;25.05;100.00
6565;BME280;3316;44.118;27.258;2023-08-24T03:36:18;100934.22;;;25.39;100.00
6565;BME280;3316;44.118;27.258;2023-08-24T03:38:44;100932.06;;;25.44;100.00
6565;BME280;3316;44.118;27.258;2023-08-24T03:41:10;100938.09;;;25.48;100.00
6565;BME280;3316;44.118;27.258;2023-08-24T03:43:35;100900.69;;;25.17;100.00
6565;BME280;3316;44.118;27.258;2023-08-24T03:46:03;100936.91;;;25.39;100.00
6565;BME280;3316;44.118;27.258;2023-08-24T03:48:32;100910.34;;;25.33;100.00
6565;BME280;3316;44.118;27.258;2023-08-24T03:50:58;100939.63;;;25.52;100.00
6565;BME280;3316;44.118;27.258;2023-08-24T03:53:24;100933.72;;;25.59;100.00
6565;BME280;3316;44.118;27.258;2023-08-24T03:55:51;100935.72;;;25.70;100.00
6565;BME280;3316;44.118;27.258;2023-08-24T03:58:17;100927.91;;;25.66;100.00
6565;BME280;3316;44.118;27.258;2023-08-24T04:00:43;100934.31;;;25.77;100.00
6565;BME280;3316;44.118;27.258;2023-08-24T04:03:09;100925.28;;;25.91;100.00
6565;BME280;3316;44.118;27.258;2023-08-24T04:05:34;100929.66;;;26.06;100.00
6565;BME280;3316;44.118;27.258;2023-08-24T04:08:00;100926.53;;;26.37;100.00
6565;BME280;3316;44.118;27.258;2023-08-24T04:10:26;100941.56;;;26.90;100.00
6565;BME280;3316;44.118;27.258;2023-08-24T04:12:52;100924.50;;;27.25;100.00
6565;BME280;3316;44.118;27.258;2023-08-24T04:15:18;100934.91;;;27.66;100.00
6565;BME280;3316;44.118;27.258;2023-08-24T04:17:43;100939.19;;;27.92;100.00
6565;BME280;3316;44.118;27.258;2023-08-24T04:20:09;100937.81;;;28.22;100.00
6565;BME280;3316;44.118;27.258;2023-08-24T04:22:35;100945.81;;;28.34;100.00
6565;BME280;3316;44.118;27.258;2023-08-24T04:25:00;100955.53;;;27.91;100.00
6565;BME280;3316;44.118;27.258;2023-08-24T04:27:26;100949.91;;;27.70;100.00
6565;BME280;3316;44.118;27.258;2023-08-24T04:29:52;100953.50;;;27.47;100.00
6565;BME280;3316;44.118;27.258;2023-08-24T04:32:17;100957.66;;;27.27;100.00
6565;BME280;3316;44.118;27.258;2023-08-24T04:34:42;100962.41;;;27.00;100.00
6565;BME280;3316;44.118;27.258;2023-08-24T04:37:08;100954.28;;;27.00;100.00
6565;BME280;3316;44.118;27.258;2023-08-24T04:39:34;100948.41;;;26.83;100.00
6565;BME280;3316;44.118;27.258;2023-08-24T04:42:00;100945.16;;;26.65;100.00
6565;BME280;3316;44.118;27.258;2023-08-24T04:44:25;100949.16;;;26.47;100.00
6565;BME280;3316;44.118;27.258;2023-08-24T04:46:51;100959.66;;;26.39;100.00
6565;BME280;3316;44.118;27.258;2023-08-24T04:49:16;100955.31;;;26.24;100.00
6565;BME280;3316;44.118;27.258;2023-08-24T04:51:42;100890.56;;;25.99;100.00
6565;BME280;3316;44.118;27.258;2023-08-24T04:54:08;100946.38;;;26.36;100.00
6565;BME280;3316;44.118;27.258;2023-08-24T04:56:35;100939.13;;;26.49;100.00
6565;BME280;3316;44.118;27.258;2023-08-24T04:59:00;100938.59;;;27.05;100.00
6565;BME280;3316;44.118;27.258;2023-08-24T05:01:28;100939.88;;;27.49;100.00
6565;BME280;3316;44.118;27.258;2023-08-24T05:03:55;100938.66;;;27.53;100.00
6565;BME280;3316;44.118;27.258;2023-08-24T05:06:21;100935.16;;;27.63;100.00
6565;BME280;3316;44.118;27.258;2023-08-24T05:08:46;100947.94;;;27.61;100.00
6565;BME280;3316;44.118;27.258;2023-08-24T05:13:46;100940.16;;;27.33;100.00
6565;BME280;3316;44.118;27.258;2023-08-24T05:16:13;100952.50;;;27.24;100.00
6565;BME280;3316;44.118;27.258;2023-08-24T05:18:39;100951.13;;;27.66;100.00
6565;BME280;3316;44.118;27.258;2023-08-24T05:21:05;100958.78;;;27.96;100.00
6565;BME280;3316;44.118;27.258;2023-08-24T05:23:32;100961.81;;;28.48;100.00
6565;BME280;3316;44.118;27.258;2023-08-24T05:25:58;100967.97;;;29.81;100.00
6565;BME280;3316;44.118;27.258;2023-08-24T05:28:28;100968.94;;;31.33;97.41
6565;BME280;3316;44.118;27.258;2023-08-24T05:30:54;100983.78;;;32.26;91.70
6565;BME280;3316;44.118;27.258;2023-08-24T05:33:20;100966.31;;;31.71;92.71
6565;BME280;3316;44.118;27.258;2023-08-24T05:35:47;100972.13;;;32.33;88.95
6565;BME280;3316;44.118;27.258;2023-08-24T05:38:13;100965.81;;;32.98;82.73
6565;BME280;3316;44.118;27.258;2023-08-24T05:40:38;100970.38;;;33.70;75.47
6565;BME280;3316;44.118;27.258;2023-08-24T05:43:04;100988.19;;;34.52;71.17
6565;BME280;3316;44.118;27.258;2023-08-24T05:45:30;100989.81;;;34.97;67.55
6565;BME280;3316;44.118;27.258;2023-08-24T05:47:55;100987.91;;;35.39;65.03
6565;BME280;3316;44.118;27.258;2023-08-24T05:50:21;100987.38;;;35.85;59.00
6565;BME280;3316;44.118;27.258;2023-08-24T05:52:46;100994.88;;;35.25;62.84
6565;BME280;3316;44.118;27.258;2023-08-24T05:55:12;100996.94;;;35.65;59.62
6565;BME280;3316;44.118;27.258;2023-08-24T05:57:37;100996.06;;;35.72;61.25
6565;BME280;3316;44.118;27.258;2023-08-24T06:00:04;100999.72;;;36.21;59.00
6565;BME280;3316;44.118;27.258;2023-08-24T06:02:39;100973.88;;;36.08;55.72
6565;BME280;3316;44.118;27.258;2023-08-24T06:05:05;100997.69;;;36.47;53.63
6565;BME280;3316;44.118;27.258;2023-08-24T06:07:31;101010.97;;;36.83;52.83
6565;BME280;3316;44.118;27.258;2023-08-24T06:09:57;101011.81;;;37.38;49.00
6565;BME280;3316;44.118;27.258;2023-08-24T06:12:22;101015.34;;;37.55;48.22
6565;BME280;3316;44.118;27.258;2023-08-24T06:14:47;101023.00;;;37.98;46.42
6565;BME280;3316;44.118;27.258;2023-08-24T06:17:13;101017.97;;;38.01;45.22
6565;BME280;3316;44.118;27.258;2023-08-24T06:19:38;101031.00;;;38.30;43.94
6565;BME280;3316;44.118;27.258;2023-08-24T06:22:04;101038.09;;;38.62;42.19
6565;BME280;3316;44.118;27.258;2023-08-24T06:24:30;101030.38;;;38.57;41.78
6565;BME280;3316;44.118;27.258;2023-08-24T06:26:55;101039.13;;;39.12;42.14
6565;BME280;3316;44.118;27.258;2023-08-24T06:29:21;101046.78;;;39.61;41.85
6565;BME280;3316;44.118;27.258;2023-08-24T06:31:46;101037.47;;;39.33;41.34
6565;BME280;3316;44.118;27.258;2023-08-24T06:34:11;101044.78;;;38.96;42.77
6565;BME280;3316;44.118;27.258;2023-08-24T06:36:37;101048.25;;;37.93;44.58
6565;BME280;3316;44.118;27.258;2023-08-24T06:39:03;101050.09;;;36.52;49.62
6565;BME280;3316;44.118;27.258;2023-08-24T06:41:33;101045.91;;;35.01;55.66
6565;BME280;3316;44.118;27.258;2023-08-24T06:43:59;101048.34;;;34.60;59.61
6565;BME280;3316;44.118;27.258;2023-08-24T06:46:24;101038.50;;;35.27;57.89
6565;BME280;3316;44.118;27.258;2023-08-24T06:48:49;101040.84;;;36.29;53.98
6565;BME280;3316;44.118;27.258;2023-08-24T06:51:15;101036.34;;;36.85;49.08
6565;BME280;3316;44.118;27.258;2023-08-24T06:53:41;101035.22;;;36.47;49.02
6565;BME280;3316;44.118;27.258;2023-08-24T06:56:07;101009.09;;;34.44;55.92
6565;BME280;3316;44.118;27.258;2023-08-24T06:58:34;101039.25;;;34.52;57.89
6565;BME280;3316;44.118;27.258;2023-08-24T07:01:00;101026.88;;;34.91;57.19
6565;BME280;3316;44.118;27.258;2023-08-24T07:03:25;101020.81;;;35.05;56.57
6565;BME280;3316;44.118;27.258;2023-08-24T07:05:51;101031.13;;;35.19;56.31
6565;BME280;3316;44.118;27.258;2023-08-24T07:08:16;101045.09;;;34.82;56.75
6565;BME280;3316;44.118;27.258;2023-08-24T07:10:42;101037.59;;;35.10;58.39
6565;BME280;3316;44.118;27.258;2023-08-24T07:13:08;101039.22;;;35.37;57.01
6565;BME280;3316;44.118;27.258;2023-08-24T07:15:34;101027.53;;;35.60;54.55
6565;BME280;3316;44.118;27.258;2023-08-24T07:18:03;101033.69;;;35.62;53.51
6565;BME280;3316;44.118;27.258;2023-08-24T07:20:31;101040.75;;;35.31;51.07
6565;BME280;3316;44.118;27.258;2023-08-24T07:22:57;101034.25;;;34.47;52.94
6565;BME280;3316;44.118;27.258;2023-08-24T07:25:23;101053.03;;;34.68;52.26
6565;BME280;3316;44.118;27.258;2023-08-24T07:27:48;101032.69;;;33.57;59.45
6565;BME280;3316;44.118;27.258;2023-08-24T07:30:14;101039.91;;;33.48;61.81
6565;BME280;3316;44.118;27.258;2023-08-24T07:32:39;101020.69;;;33.13;63.62
6565;BME280;3316;44.118;27.258;2023-08-24T07:35:06;101025.22;;;33.49;61.51
6565;BME280;3316;44.118;27.258;2023-08-24T07:37:32;101030.50;;;33.33;61.81
6565;BME280;3316;44.118;27.258;2023-08-24T07:39:57;101027.88;;;33.32;63.83
6565;BME280;3316;44.118;27.258;2023-08-24T07:42:23;101021.47;;;32.96;62.69
6565;BME280;3316;44.118;27.258;2023-08-24T07:44:49;101018.72;;;33.05;64.97
6565;BME280;3316;44.118;27.258;2023-08-24T07:47:15;101023.34;;;33.22;64.47
6565;BME280;3316;44.118;27.258;2023-08-24T07:49:41;101034.84;;;33.71;64.08
6565;BME280;3316;44.118;27.258;2023-08-24T07:52:12;101024.72;;;33.36;66.58
6565;BME280;3316;44.118;27.258;2023-08-24T07:54:38;101022.66;;;33.48;66.63
6565;BME280;3316;44.118;27.258;2023-08-24T07:57:05;101016.59;;;32.99;70.16
6565;BME280;3316;44.118;27.258;2023-08-24T07:59:30;100977.28;;;33.47;66.94
6565;BME280;3316;44.118;27.258;2023-08-24T08:01:56;101012.06;;;33.17;67.75
6565;BME280;3316;44.118;27.258;2023-08-24T08:04:21;101030.19;;;33.81;65.08
6565;BME280;3316;44.118;27.258;2023-08-24T08:06:47;101021.72;;;34.19;63.60
6565;BME280;3316;44.118;27.258;2023-08-24T08:09:12;101031.28;;;34.58;61.37
6565;BME280;3316;44.118;27.258;2023-08-24T08:11:38;101037.00;;;34.12;61.53
6565;BME280;3316;44.118;27.258;2023-08-24T08:14:03;101021.53;;;33.85;63.00
6565;BME280;3316;44.118;27.258;2023-08-24T08:16:29;101032.78;;;34.18;62.69
6565;BME280;3316;44.118;27.258;2023-08-24T08:18:54;101003.56;;;34.36;61.21
6565;BME280;3316;44.118;27.258;2023-08-24T08:21:20;101039.16;;;34.61;59.56
6565;BME280;3316;44.118;27.258;2023-08-24T08:23:45;101025.75;;;34.50;58.79
6565;BME280;3316;44.118;27.258;2023-08-24T08:26:11;101031.06;;;34.52;57.92
6565;BME280;3316;44.118;27.258;2023-08-24T08:28:39;101012.75;;;35.04;54.71
6565;BME280;3316;44.118;27.258;2023-08-24T08:31:04;101036.56;;;35.45;53.80
6565;BME280;3316;44.118;27.258;2023-08-24T08:33:30;101031.94;;;34.86;52.44
6565;BME280;3316;44.118;27.258;2023-08-24T08:35:56;101014.59;;;34.69;53.72
6565;BME280;3316;44.118;27.258;2023-08-24T08:38:21;101023.94;;;34.41;55.61
6565;BME280;3316;44.118;27.258;2023-08-24T08:40:51;101016.91;;;34.56;55.74
6565;BME280;3316;44.118;27.258;2023-08-24T08:43:21;101020.72;;;34.46;55.62
6565;BME280;3316;44.118;27.258;2023-08-24T08:45:51;101020.75;;;34.28;56.63
6565;BME280;3316;44.118;27.258;2023-08-24T08:48:17;101000.19;;;34.42;55.91
6565;BME280;3316;44.118;27.258;2023-08-24T08:50:43;101012.56;;;34.28;56.30
6565;BME280;3316;44.118;27.258;2023-08-24T08:53:09;100994.25;;;34.21;55.91
6565;BME280;3316;44.118;27.258;2023-08-24T08:55:34;100997.94;;;34.37;56.83
6565;BME280;3316;44.118;27.258;2023-08-24T08:58:00;101002.31;;;34.48;57.38
6565;BME280;3316;44.118;27.258;2023-08-24T09:00:28;100970.41;;;34.31;56.22
6565;BME280;3316;44.118;27.258;2023-08-24T09:02:56;101003.53;;;34.10;58.49
6565;BME280;3316;44.118;27.258;2023-08-24T09:05:23;100998.75;;;33.94;58.28
6565;BME280;3316;44.118;27.258;2023-08-24T09:07:53;100996.94;;;34.38;59.02
6565;BME280;3316;44.118;27.258;2023-08-24T09:10:22;100993.56;;;34.44;57.50
6565;BME280;3316;44.118;27.258;2023-08-24T09:12:47;100986.56;;;34.67;55.57
6565;BME280;3316;44.118;27.258;2023-08-24T09:15:12;100982.25;;;34.90;55.89
6565;BME280;3316;44.118;27.258;2023-08-24T09:17:42;100990.94;;;34.86;55.92
6565;BME280;3316;44.118;27.258;2023-08-24T09:20:09;100978.06;;;34.78;56.02
6565;BME280;3316;44.118;27.258;2023-08-24T09:22:36;100980.00;;;34.86;54.72
6565;BME280;3316;44.118;27.258;2023-08-24T09:25:03;100965.25;;;35.05;53.51
6565;BME280;3316;44.118;27.258;2023-08-24T09:27:30;100974.66;;;35.10;52.38
6565;BME280;3316;44.118;27.258;2023-08-24T09:29:56;100968.72;;;35.15;53.29
6565;BME280;3316;44.118;27.258;2023-08-24T09:32:23;100970.44;;;35.24;53.22
6565;BME280;3316;44.118;27.258;2023-08-24T09:34:49;100966.31;;;35.69;52.57
6565;BME280;3316;44.118;27.258;2023-08-24T09:37:15;100959.66;;;36.12;51.30
6565;BME280;3316;44.118;27.258;2023-08-24T09:39:41;100945.78;;;36.14;50.16
6565;BME280;3316;44.118;27.258;2023-08-24T09:42:07;100921.47;;;35.87;51.61
6565;BME280;3316;44.118;27.258;2023-08-24T09:44:32;100946.31;;;35.93;51.23
6565;BME280;3316;44.118;27.258;2023-08-24T09:46:58;100949.03;;;36.09;51.19
6565;BME280;3316;44.118;27.258;2023-08-24T09:49:24;100953.47;;;36.42;50.84
6565;BME280;3316;44.118;27.258;2023-08-24T09:51:55;100944.75;;;36.47;50.32
6565;BME280;3316;44.118;27.258;2023-08-24T09:54:26;100946.63;;;36.46;50.11
6565;BME280;3316;44.118;27.258;2023-08-24T09:56:54;100943.56;;;36.09;51.15
6565;BME280;3316;44.118;27.258;2023-08-24T09:59:21;100928.13;;;36.40;50.42
6565;BME280;3316;44.118;27.258;2023-08-24T10:01:50;100918.50;;;36.36;51.01
6565;BME280;3316;44.118;27.258;2023-08-24T10:04:34;100936.19;;;36.97;50.13
6565;BME280;3316;44.118;27.258;2023-08-24T10:07:11;100929.38;;;37.23;47.64
6565;BME280;3316;44.118;27.258;2023-08-24T10:10:03;100935.78;;;37.46;46.90
6565;BME280;3316;44.118;27.258;2023-08-24T10:12:32;100900.53;;;37.27;46.96
6565;BME280;3316;44.118;27.258;2023-08-24T10:15:02;100917.63;;;37.07;46.07
6565;BME280;3316;44.118;27.258;2023-08-24T10:17:30;100921.75;;;36.48;48.17
6565;BME280;3316;44.118;27.258;2023-08-24T10:19:58;100917.34;;;36.94;47.88
6565;BME280;3316;44.118;27.258;2023-08-24T10:22:30;100916.72;;;36.76;47.08
6565;BME280;3316;44.118;27.258;2023-08-24T10:24:56;100907.84;;;37.43;45.63
6565;BME280;3316;44.118;27.258;2023-08-24T10:27:27;100903.56;;;37.86;44.96
6565;BME280;3316;44.118;27.258;2023-08-24T10:29:53;100904.34;;;38.61;43.75
6565;BME280;3316;44.118;27.258;2023-08-24T10:32:22;100899.00;;;39.17;42.55
6565;BME280;3316;44.118;27.258;2023-08-24T10:34:51;100900.06;;;39.38;41.75
6565;BME280;3316;44.118;27.258;2023-08-24T10:37:24;100900.31;;;39.43;40.78
6565;BME280;3316;44.118;27.258;2023-08-24T10:39:50;100895.47;;;39.45;40.36
6565;BME280;3316;44.118;27.258;2023-08-24T10:42:15;100887.97;;;39.17;40.84
6565;BME280;3316;44.118;27.258;2023-08-24T10:44:45;100877.47;;;39.06;41.15
6565;BME280;3316;44.118;27.258;2023-08-24T10:49:43;100869.00;;;39.44;39.89
6565;BME280;3316;44.118;27.258;2023-08-24T10:52:21;100860.75;;;39.65;38.99
6565;BME280;3316;44.118;27.258;2023-08-24T10:54:48;100868.31;;;39.84;38.90
6565;BME280;3316;44.118;27.258;2023-08-24T11:00:09;100853.22;;;39.52;38.99
6565;BME280;3316;44.118;27.258;2023-08-24T11:02:45;100848.34;;;39.33;37.90
6565;BME280;3316;44.118;27.258;2023-08-24T11:05:21;100851.81;;;39.21;40.04
6565;BME280;3316;44.118;27.258;2023-08-24T11:08:00;100850.84;;;39.70;37.91
6565;BME280;3316;44.118;27.258;2023-08-24T11:15:29;100836.31;;;40.04;36.88
6565;BME280;3316;44.118;27.258;2023-08-24T11:20:46;100829.03;;;39.75;36.33
6565;BME280;3316;44.118;27.258;2023-08-24T11:23:14;100822.72;;;38.97;36.70
6565;BME280;3316;44.118;27.258;2023-08-24T11:25:40;100814.53;;;39.03;36.84
6565;BME280;3316;44.118;27.258;2023-08-24T11:28:05;100818.34;;;39.59;37.09
6565;BME280;3316;44.118;27.258;2023-08-24T11:30:31;100811.31;;;39.84;36.26
6565;BME280;3316;44.118;27.258;2023-08-24T11:32:58;100810.66;;;39.82;36.40
6565;BME280;3316;44.118;27.258;2023-08-24T11:35:24;100800.84;;;40.01;36.03
6565;BME280;3316;44.118;27.258;2023-08-24T11:37:53;100805.59;;;39.86;35.98
6565;BME280;3316;44.118;27.258;2023-08-24T11:40:19;100799.78;;;40.30;35.07
6565;BME280;3316;44.118;27.258;2023-08-24T11:42:46;100771.28;;;40.23;35.07
6565;BME280;3316;44.118;27.258;2023-08-24T11:45:12;100799.97;;;40.75;34.54
6565;BME280;3316;44.118;27.258;2023-08-24T11:47:38;100806.66;;;41.01;33.27
6565;BME280;3316;44.118;27.258;2023-08-24T11:50:04;100794.38;;;40.15;33.16
6565;BME280;3316;44.118;27.258;2023-08-24T11:52:30;100795.84;;;39.56;34.13
6565;BME280;3316;44.118;27.258;2023-08-24T11:55:00;100797.19;;;38.67;36.01
6565;BME280;3316;44.118;27.258;2023-08-24T11:57:26;100787.34;;;38.14;37.56
6565;BME280;3316;44.118;27.258;2023-08-24T11:59:54;100787.50;;;37.46;38.86
6565;BME280;3316;44.118;27.258;2023-08-24T12:02:20;100772.72;;;37.02;39.61
6565;BME280;3316;44.118;27.258;2023-08-24T12:04:48;100786.59;;;36.47;42.67
6565;BME280;3316;44.118;27.258;2023-08-24T12:07:14;100777.91;;;35.49;46.25
6565;BME280;3316;44.118;27.258;2023-08-24T12:09:40;100776.53;;;35.21;48.12
6565;BME280;3316;44.118;27.258;2023-08-24T12:12:12;100777.69;;;35.02;50.54
6565;BME280;3316;44.118;27.258;2023-08-24T12:14:44;100783.69;;;35.22;51.02
6565;BME280;3316;44.118;27.258;2023-08-24T12:17:11;100767.63;;;35.03;55.26
6565;BME280;3316;44.118;27.258;2023-08-24T12:19:36;100778.00;;;34.41;62.26
6565;BME280;3316;44.118;27.258;2023-08-24T12:22:03;100777.63;;;34.70;63.39
6565;BME280;3316;44.118;27.258;2023-08-24T12:24:28;100783.28;;;34.84;63.06
6565;BME280;3316;44.118;27.258;2023-08-24T12:26:57;100785.44;;;34.65;66.38
6565;BME280;3316;44.118;27.258;2023-08-24T12:29:23;100776.13;;;34.42;69.95
6565;BME280;3316;44.118;27.258;2023-08-24T12:31:49;100774.78;;;34.46;69.35
6565;BME280;3316;44.118;27.258;2023-08-24T12:34:15;100763.94;;;34.62;69.34
6565;BME280;3316;44.118;27.258;2023-08-24T12:36:41;100785.00;;;34.77;70.25
6565;BME280;3316;44.118;27.258;2023-08-24T12:39:10;100797.44;;;33.79;74.46
6565;BME280;3316;44.118;27.258;2023-08-24T12:41:38;100748.72;;;33.41;77.08
6565;BME280;3316;44.118;27.258;2023-08-24T12:44:04;100749.16;;;33.54;76.62
6565;BME280;3316;44.118;27.258;2023-08-24T12:46:34;100766.72;;;33.51;76.89
6565;BME280;3316;44.118;27.258;2023-08-24T12:49:03;100759.88;;;33.73;75.29
6565;BME280;3316;44.118;27.258;2023-08-24T12:51:28;100758.97;;;34.24;71.64
6565;BME280;3316;44.118;27.258;2023-08-24T12:53:54;100730.41;;;34.10;69.11
6565;BME280;3316;44.118;27.258;2023-08-24T12:56:19;100774.44;;;33.81;68.83
6565;BME280;3316;44.118;27.258;2023-08-24T12:58:45;100758.91;;;33.56;69.06
6565;BME280;3316;44.118;27.258;2023-08-24T13:01:13;100774.31;;;33.65;68.16
6565;BME280;3316;44.118;27.258;2023-08-24T13:03:39;100769.22;;;33.45;69.08
6565;BME280;3316;44.118;27.258;2023-08-24T13:06:05;100770.63;;;33.31;67.73
6565;BME280;3316;44.118;27.258;2023-08-24T13:08:30;100752.53;;;33.48;67.52
6565;BME280;3316;44.118;27.258;2023-08-24T13:10:56;100777.19;;;33.20;66.75
6565;BME280;3316;44.118;27.258;2023-08-24T13:13:21;100763.28;;;33.32;67.19